createdAt,value
2022-12-22T00:02:32.540Z,18.77
2022-12-22T00:05:15.113Z,21.50
2022-12-22T00:07:57.480Z,20.15
2022-12-22T00:10:39.970Z,16.90
2022-12-22T00:13:28.848Z,20.35
2022-12-22T00:16:11.328Z,19.25
2022-12-22T00:18:53.719Z,16.63
2022-12-22T00:21:36.102Z,15.85
2022-12-22T00:24:18.873Z,63.60
2022-12-22T00:27:01.892Z,33.80
2022-12-22T00:29:54.979Z,59.50
2022-12-22T00:32:38.537Z,14.75
2022-12-22T00:35:26.425Z,20.40
2022-12-22T00:38:08.789Z,19.95
2022-12-22T00:40:51.154Z,20.98
2022-12-22T00:43:33.512Z,16.08
2022-12-22T00:46:19.888Z,16.05
2022-12-22T00:49:02.819Z,27.73
2022-12-22T00:51:46.219Z,20.55
2022-12-22T00:54:30.890Z,13.88
2022-12-22T00:57:15.225Z,15.68
2022-12-22T00:59:57.717Z,21.63
2022-12-22T01:02:42.786Z,22.40
2022-12-22T01:08:07.570Z,22.25
2022-12-22T01:10:50.095Z,23.70
2022-12-22T01:13:33.112Z,22.52
2022-12-22T01:16:16.254Z,21.63
2022-12-22T01:19:01.420Z,20.98
2022-12-22T01:24:28.903Z,23.75
2022-12-22T01:27:11.292Z,22.65
2022-12-22T01:29:53.656Z,22.67
2022-12-22T01:32:36.045Z,24.27
2022-12-22T01:35:23.822Z,25.23
2022-12-22T01:38:06.250Z,30.52
2022-12-22T01:40:48.636Z,23.52
2022-12-22T01:43:37.146Z,24.73
2022-12-22T01:46:39.100Z,24.30
2022-12-22T01:49:26.309Z,20.52
2022-12-22T01:52:12.070Z,23.92
2022-12-22T01:54:54.629Z,24.02
2022-12-22T01:57:36.990Z,36.92
2022-12-22T02:00:21.636Z,22.60
2022-12-22T02:03:04.050Z,23.73
2022-12-22T02:05:51.911Z,23.90
2022-12-22T02:08:42.218Z,22.95
2022-12-22T02:11:40.337Z,26.95
2022-12-22T02:14:38.144Z,22.95
2022-12-22T02:17:29.533Z,23.08
2022-12-22T02:20:37.977Z,21.55
2022-12-22T02:23:28.799Z,25.92
2022-12-22T02:26:33.111Z,21.77
2022-12-22T02:29:16.742Z,22.95
2022-12-22T02:31:59.164Z,24.13
2022-12-22T02:34:41.612Z,18.95
2022-12-22T02:37:34.110Z,25.67
2022-12-22T02:40:23.413Z,20.38
2022-12-22T02:43:20.833Z,19.55
2022-12-22T02:46:11.137Z,23.08
2022-12-22T02:49:01.736Z,21.38
2022-12-22T02:51:46.739Z,22.67
2022-12-22T02:54:31.738Z,21.25
2022-12-22T02:57:14.173Z,19.98
2022-12-22T02:59:59.120Z,22.65
2022-12-22T03:02:41.690Z,24.98
2022-12-22T03:05:24.292Z,18.95
2022-12-22T03:08:08.664Z,20.08
2022-12-22T03:10:51.442Z,21.70
2022-12-22T03:13:33.843Z,22.45
2022-12-22T03:16:19.139Z,19.42
2022-12-22T03:19:01.565Z,17.15
2022-12-22T03:21:44.166Z,23.05
2022-12-22T03:24:26.557Z,19.52
2022-12-22T03:26:57.507Z,18.10
2022-12-22T03:29:27.418Z,17.63
2022-12-22T03:31:59.942Z,21.83
2022-12-22T03:34:29.834Z,18.05
2022-12-22T03:36:59.709Z,25.13
2022-12-22T03:39:29.618Z,20.13
2022-12-22T03:42:12.016Z,25.02
2022-12-22T03:44:54.360Z,22.63
2022-12-22T03:47:26.847Z,25.40
2022-12-22T03:49:56.689Z,25.48
2022-12-22T03:52:26.607Z,19.70
2022-12-22T03:54:56.433Z,21.70
2022-12-22T03:57:26.304Z,20.15
2022-12-22T03:59:56.209Z,24.38
2022-12-22T04:02:28.750Z,21.35
2022-12-22T04:04:58.670Z,19.35
2022-12-22T04:07:28.549Z,25.35
2022-12-22T04:10:10.958Z,22.23
2022-12-22T04:12:53.340Z,20.33
2022-12-22T04:15:23.324Z,21.27
2022-12-22T04:17:56.025Z,23.67
2022-12-22T04:20:28.589Z,20.10
2022-12-22T04:22:59.471Z,20.83
2022-12-22T04:25:30.462Z,24.08
2022-12-22T04:28:00.358Z,20.98
2022-12-22T04:30:30.241Z,23.30
2022-12-22T04:33:02.695Z,24.60
2022-12-22T04:35:32.529Z,22.08
2022-12-22T04:38:02.433Z,22.50
2022-12-22T04:40:32.295Z,24.80
2022-12-22T04:43:02.139Z,23.95
2022-12-22T04:45:32.218Z,24.30
2022-12-22T04:48:04.984Z,24.02
2022-12-22T04:50:34.843Z,26.55
2022-12-22T04:53:04.769Z,28.75
2022-12-22T04:55:34.607Z,27.90
2022-12-22T04:58:04.482Z,29.08
2022-12-22T05:00:34.360Z,35.15
2022-12-22T05:03:06.964Z,31.30
2022-12-22T05:05:36.986Z,32.08
2022-12-22T05:08:07.677Z,37.08
2022-12-22T05:10:37.629Z,37.22
2022-12-22T05:13:07.591Z,35.35
2022-12-22T05:15:39.311Z,33.15
2022-12-22T05:18:13.311Z,33.65
2022-12-22T05:20:43.217Z,31.27
2022-12-22T05:23:13.076Z,30.33
2022-12-22T05:25:42.928Z,86.13
2022-12-22T05:28:12.814Z,43.60
2022-12-22T05:30:43.897Z,39.33
2022-12-22T05:33:16.367Z,38.83
2022-12-22T05:35:46.227Z,31.75
2022-12-22T05:38:16.063Z,30.33
2022-12-22T05:40:45.930Z,32.30
2022-12-22T05:43:16.862Z,31.88
2022-12-22T05:45:47.926Z,37.78
2022-12-22T05:48:27.409Z,35.25
2022-12-22T05:50:59.468Z,32.42
2022-12-22T05:53:29.391Z,31.95
2022-12-22T05:55:59.267Z,31.48
2022-12-22T05:58:29.264Z,33.75
2022-12-22T06:01:00.775Z,40.03
2022-12-22T06:03:34.064Z,32.92
2022-12-22T06:06:04.011Z,39.65
2022-12-22T06:08:34.000Z,32.63
2022-12-22T06:11:03.868Z,41.22
2022-12-22T06:13:34.582Z,30.10
2022-12-22T06:16:04.479Z,32.13
2022-12-22T06:18:36.971Z,30.10
2022-12-22T06:21:07.261Z,32.70
2022-12-22T06:23:37.253Z,30.38
2022-12-22T06:26:07.411Z,34.88
2022-12-22T06:28:37.259Z,34.25
2022-12-22T06:31:07.550Z,34.33
2022-12-22T06:33:40.162Z,31.25
2022-12-22T06:36:11.793Z,31.88
2022-12-22T06:38:41.639Z,30.55
2022-12-22T06:41:11.712Z,29.42
2022-12-22T06:43:39.024Z,32.95
2022-12-22T06:46:08.941Z,30.20
2022-12-22T06:48:41.377Z,32.95
2022-12-22T06:51:11.253Z,24.67
2022-12-22T06:53:41.084Z,32.03
2022-12-22T06:56:11.378Z,39.10
2022-12-22T06:58:41.212Z,29.02
2022-12-22T07:01:11.091Z,29.73
2022-12-22T07:03:43.553Z,32.28
2022-12-22T07:06:13.453Z,28.17
2022-12-22T07:08:43.320Z,30.98
2022-12-22T07:11:13.527Z,32.05
2022-12-22T07:13:43.964Z,31.48
2022-12-22T07:16:14.686Z,27.00
2022-12-22T07:18:47.424Z,28.42
2022-12-22T07:21:18.003Z,32.70
2022-12-22T07:23:47.869Z,31.27
2022-12-22T07:26:18.407Z,30.23
2022-12-22T07:28:48.292Z,31.40
2022-12-22T07:31:20.573Z,34.85
2022-12-22T07:33:53.027Z,30.92
2022-12-22T07:36:23.991Z,26.50
2022-12-22T07:38:54.939Z,26.40
2022-12-22T07:41:37.450Z,28.30
2022-12-22T07:44:08.425Z,30.23
2022-12-22T07:46:41.313Z,28.95
2022-12-22T07:49:27.190Z,21.88
2022-12-22T07:52:00.232Z,28.50
2022-12-22T07:54:35.209Z,27.38
2022-12-22T07:57:08.000Z,27.85
2022-12-22T07:59:37.856Z,31.88
2022-12-22T08:02:07.836Z,28.55
2022-12-22T08:04:40.424Z,28.67
2022-12-22T08:07:10.314Z,27.52
2022-12-22T08:09:40.149Z,26.10
2022-12-22T08:12:10.479Z,29.00
2022-12-22T08:14:40.360Z,24.55
2022-12-22T08:17:10.203Z,26.60
2022-12-22T08:19:42.923Z,26.98
2022-12-22T08:22:12.909Z,28.48
2022-12-22T08:24:42.766Z,36.33
2022-12-22T08:27:24.011Z,26.55
2022-12-22T08:30:01.223Z,31.80
2022-12-22T08:32:31.355Z,23.02
2022-12-22T08:35:03.966Z,25.15
2022-12-22T08:37:41.277Z,26.30
2022-12-22T08:40:17.352Z,26.17
2022-12-22T08:42:47.806Z,23.05
2022-12-22T08:45:17.725Z,23.25
2022-12-22T08:47:47.579Z,27.02
2022-12-22T08:50:20.237Z,23.23
2022-12-22T08:52:50.102Z,22.92
2022-12-22T08:55:20.312Z,28.42
2022-12-22T08:57:56.170Z,28.77
2022-12-22T09:00:27.341Z,24.55
2022-12-22T09:02:57.376Z,24.38
2022-12-22T09:05:29.920Z,22.13
2022-12-22T09:08:01.133Z,27.65
2022-12-22T09:10:30.999Z,24.73
2022-12-22T09:13:01.821Z,22.63
2022-12-22T09:15:31.730Z,19.88
2022-12-22T09:18:01.597Z,20.83
2022-12-22T09:20:34.033Z,18.55
2022-12-22T09:23:04.284Z,24.05
2022-12-22T09:25:34.166Z,21.95
2022-12-22T09:28:04.074Z,20.95
2022-12-22T09:30:33.936Z,25.35
2022-12-22T09:33:03.839Z,25.00
2022-12-22T09:35:36.321Z,17.75
2022-12-22T09:38:06.181Z,23.20
2022-12-22T09:40:36.556Z,20.95
2022-12-22T09:43:07.028Z,22.33
2022-12-22T09:45:38.719Z,21.25
2022-12-22T09:48:13.324Z,23.48
2022-12-22T09:50:45.806Z,17.95
2022-12-22T09:53:23.269Z,17.77
2022-12-22T09:55:54.484Z,20.77
2022-12-22T09:58:30.000Z,21.20
2022-12-22T10:01:12.859Z,18.70
2022-12-22T10:03:53.847Z,22.42
2022-12-22T10:06:38.513Z,18.42
2022-12-22T10:09:48.082Z,18.67
2022-12-22T10:12:17.264Z,19.42
2022-12-22T10:14:50.175Z,21.95
2022-12-22T10:17:28.298Z,19.23
2022-12-22T10:20:25.490Z,18.15
2022-12-22T10:23:01.988Z,18.67
2022-12-22T10:26:08.736Z,19.90
2022-12-22T10:28:30.063Z,19.63
2022-12-22T10:31:20.287Z,19.45
2022-12-22T10:33:52.851Z,26.55
2022-12-22T10:36:26.949Z,22.40
2022-12-22T10:39:06.727Z,19.85
2022-12-22T10:41:40.856Z,20.02
2022-12-22T10:44:17.473Z,19.95
2022-12-22T10:46:50.096Z,19.75
2022-12-22T10:49:24.490Z,20.63
2022-12-22T10:51:57.814Z,17.95
2022-12-22T10:54:34.132Z,21.90
2022-12-22T10:57:08.196Z,21.17
2022-12-22T10:59:51.771Z,17.50
2022-12-22T11:02:37.957Z,17.17
2022-12-22T11:05:11.736Z,21.60
2022-12-22T11:07:44.841Z,19.15
2022-12-22T11:10:30.291Z,19.60
2022-12-22T11:13:51.580Z,19.45
2022-12-22T11:16:30.464Z,20.55
2022-12-22T11:19:15.983Z,18.02
2022-12-22T11:21:53.683Z,18.40
2022-12-22T11:24:37.105Z,17.00
2022-12-22T11:27:27.877Z,20.10
2022-12-22T11:30:15.119Z,22.27
2022-12-22T11:33:01.693Z,18.50
2022-12-22T11:35:50.414Z,21.00
2022-12-22T11:38:33.079Z,20.08
2022-12-22T11:41:10.924Z,21.40
2022-12-22T11:43:59.632Z,22.02
2022-12-22T11:46:36.040Z,22.85
2022-12-22T11:49:36.037Z,20.65
2022-12-22T11:52:23.721Z,23.05
2022-12-22T11:55:16.774Z,19.48
2022-12-22T11:58:01.330Z,23.27
2022-12-22T12:01:12.147Z,18.77
2022-12-22T12:03:55.916Z,21.65
2022-12-22T12:07:02.414Z,17.88
2022-12-22T12:09:48.228Z,21.38
2022-12-22T12:12:26.142Z,19.90
2022-12-22T12:15:06.324Z,20.38
2022-12-22T12:17:55.806Z,25.15
2022-12-22T12:20:47.111Z,29.58
2022-12-22T12:23:39.784Z,33.25
2022-12-22T12:26:20.094Z,36.03
2022-12-22T12:29:09.600Z,32.78
2022-12-22T12:31:45.660Z,28.27
2022-12-22T12:34:20.073Z,26.55
2022-12-22T12:36:56.266Z,23.05
2022-12-22T12:39:34.394Z,25.52
2022-12-22T12:42:18.090Z,26.42
2022-12-22T12:44:52.252Z,19.92
2022-12-22T12:47:29.424Z,25.73
2022-12-22T12:50:34.353Z,25.40
2022-12-22T12:53:13.600Z,25.55
2022-12-22T12:56:02.010Z,26.65
2022-12-22T12:58:54.864Z,23.08
2022-12-22T13:01:58.795Z,19.27
2022-12-22T13:05:14.895Z,20.15
2022-12-22T13:08:20.669Z,20.75
2022-12-22T13:12:10.635Z,20.33
2022-12-22T13:15:01.349Z,29.35
2022-12-22T13:17:44.607Z,23.77
2022-12-22T13:20:22.646Z,22.10
2022-12-22T13:22:56.588Z,20.52
2022-12-22T13:25:31.811Z,22.23
2022-12-22T13:28:01.812Z,20.00
2022-12-22T13:30:33.481Z,23.42
2022-12-22T13:33:04.479Z,24.25
2022-12-22T13:35:47.185Z,26.10
2022-12-22T13:38:34.257Z,21.63
2022-12-22T13:41:08.151Z,19.75
2022-12-22T13:43:38.777Z,26.63
2022-12-22T13:46:11.984Z,26.23
2022-12-22T13:48:45.989Z,21.83
2022-12-22T13:51:25.516Z,20.50
2022-12-22T13:54:14.675Z,65.25
2022-12-22T13:56:48.797Z,39.30
2022-12-22T13:59:30.386Z,29.05
2022-12-22T14:02:03.122Z,21.33
2022-12-22T14:04:33.728Z,22.23
2022-12-22T14:07:17.292Z,28.02
2022-12-22T14:09:48.817Z,24.90
2022-12-22T14:12:22.185Z,21.83
2022-12-22T14:14:54.684Z,19.80
2022-12-22T14:17:27.258Z,19.20
2022-12-22T14:20:00.228Z,20.35
2022-12-22T14:22:38.738Z,21.15
2022-12-22T14:25:17.001Z,21.75
2022-12-22T14:27:51.128Z,22.00
2022-12-22T14:30:24.100Z,23.35
2022-12-22T14:32:58.381Z,19.05
2022-12-22T14:35:34.248Z,21.08
2022-12-22T14:38:41.847Z,25.70
2022-12-22T14:41:33.922Z,24.73
2022-12-22T14:44:05.612Z,20.13
2022-12-22T14:46:39.163Z,22.48
2022-12-22T14:49:16.511Z,22.08
2022-12-22T14:52:00.818Z,19.67
2022-12-22T14:54:33.864Z,23.88
2022-12-22T14:57:16.119Z,20.38
2022-12-22T15:00:03.721Z,18.60
2022-12-22T15:02:39.481Z,22.58
2022-12-22T15:05:26.655Z,18.92
2022-12-22T15:08:08.397Z,23.40
2022-12-22T15:10:44.923Z,36.38
2022-12-22T15:13:21.328Z,21.48
2022-12-22T15:15:52.797Z,21.25
2022-12-22T15:18:28.144Z,21.00
2022-12-22T15:20:59.434Z,19.77
2022-12-22T15:23:29.293Z,15.48
2022-12-22T15:26:01.965Z,14.63
2022-12-22T15:28:31.864Z,16.42
2022-12-22T15:31:02.560Z,13.10
2022-12-22T15:33:33.753Z,11.85
2022-12-22T15:36:03.834Z,16.15
2022-12-22T15:38:38.666Z,12.05
2022-12-22T15:41:11.661Z,11.23
2022-12-22T15:43:58.713Z,12.55
2022-12-22T15:46:29.303Z,11.73
2022-12-22T15:48:59.269Z,21.08
2022-12-22T15:51:33.389Z,39.58
2022-12-22T15:54:04.522Z,27.80
2022-12-22T15:56:39.360Z,31.80
2022-12-22T15:59:09.379Z,23.45
2022-12-22T16:01:39.303Z,17.92
2022-12-22T16:04:10.550Z,16.67
2022-12-22T16:06:40.770Z,24.73
2022-12-22T16:09:16.488Z,20.88
2022-12-22T16:11:49.090Z,16.20
2022-12-22T16:14:21.698Z,11.70
2022-12-22T16:16:51.596Z,12.73
2022-12-22T16:19:22.025Z,12.82
2022-12-22T16:21:55.205Z,10.27
2022-12-22T16:24:30.123Z,12.07
2022-12-22T16:27:03.477Z,12.82
2022-12-22T16:29:33.703Z,8.98
2022-12-22T16:32:19.924Z,12.95
2022-12-22T16:34:49.896Z,18.25
2022-12-22T16:37:19.763Z,16.40
2022-12-22T16:39:49.816Z,15.05
2022-12-22T16:45:08.851Z,12.43
2022-12-22T16:47:39.986Z,15.30
2022-12-22T16:50:21.304Z,16.58
2022-12-22T16:52:52.984Z,18.80
2022-12-22T16:55:24.957Z,20.38
2022-12-22T16:57:57.429Z,20.10
2022-12-22T17:00:30.132Z,17.38
2022-12-22T17:03:04.422Z,21.38
2022-12-22T17:05:44.412Z,17.23
2022-12-22T17:08:24.378Z,17.00
2022-12-22T17:10:55.108Z,19.58
2022-12-22T17:13:28.115Z,18.27
2022-12-22T17:15:58.044Z,19.58
2022-12-22T17:18:29.475Z,22.55
2022-12-22T17:21:01.429Z,20.00
2022-12-22T17:23:35.780Z,20.90
2022-12-22T17:26:10.598Z,22.10
2022-12-22T17:28:44.239Z,21.02
2022-12-22T17:31:19.138Z,19.70
2022-12-22T17:33:49.343Z,27.20
2022-12-22T17:36:35.129Z,38.17
2022-12-22T17:39:06.496Z,26.90
2022-12-22T17:41:36.381Z,39.05
2022-12-22T17:44:08.828Z,31.85
2022-12-22T17:46:38.786Z,30.10
2022-12-22T17:49:08.683Z,27.98
2022-12-22T17:51:39.083Z,40.45
2022-12-22T17:54:14.430Z,32.38
2022-12-22T17:56:44.317Z,37.58
2022-12-22T17:59:16.993Z,34.05
2022-12-22T18:01:47.053Z,38.45
2022-12-22T18:04:17.042Z,37.05
2022-12-22T18:06:47.696Z,34.90
2022-12-22T18:09:24.158Z,29.90
2022-12-22T18:11:54.735Z,35.83
2022-12-22T18:14:27.581Z,42.72
2022-12-22T18:16:57.697Z,36.75
2022-12-22T18:19:27.658Z,32.83
2022-12-22T18:21:57.560Z,35.92
2022-12-22T18:24:27.429Z,31.20
2022-12-22T18:26:57.354Z,31.02
2022-12-22T18:29:29.931Z,27.90
2022-12-22T18:31:59.959Z,31.77
2022-12-22T18:34:29.857Z,45.88
2022-12-22T18:36:59.939Z,41.42
2022-12-22T18:39:29.829Z,51.85
2022-12-22T18:41:59.860Z,50.13
2022-12-22T18:44:32.768Z,36.50
2022-12-22T18:47:02.738Z,52.35
2022-12-22T18:49:32.676Z,49.38
2022-12-22T18:52:02.540Z,48.60
2022-12-22T18:54:36.991Z,35.08
2022-12-22T18:57:08.226Z,35.17
2022-12-22T18:59:40.903Z,32.75
2022-12-22T19:02:24.517Z,37.78
2022-12-22T19:04:55.278Z,36.70
2022-12-22T19:07:27.764Z,35.05
2022-12-22T19:10:00.656Z,32.85
2022-12-22T19:12:31.338Z,34.63
2022-12-22T19:15:09.394Z,31.00
2022-12-22T19:17:39.305Z,34.58
2022-12-22T19:20:18.900Z,30.40
2022-12-22T19:22:49.167Z,31.33
2022-12-22T19:25:21.601Z,30.17
2022-12-22T19:27:54.975Z,30.23
2022-12-22T19:30:28.990Z,30.77
2022-12-22T19:33:03.955Z,32.15
2022-12-22T19:35:35.495Z,32.50
2022-12-22T19:38:05.420Z,31.52
2022-12-22T19:40:36.555Z,37.58
2022-12-22T19:43:06.420Z,34.72
2022-12-22T19:45:39.021Z,38.78
2022-12-22T19:48:20.593Z,35.92
2022-12-22T19:50:51.401Z,95.80
2022-12-22T19:53:22.739Z,38.83
2022-12-22T19:55:55.394Z,40.47
2022-12-22T19:58:28.981Z,43.22
2022-12-22T20:01:01.988Z,39.28
2022-12-22T20:03:31.926Z,34.00
2022-12-22T20:06:01.841Z,27.50
2022-12-22T20:08:31.732Z,31.00
2022-12-22T20:11:02.909Z,37.97
2022-12-22T20:13:35.781Z,44.70
2022-12-22T20:16:09.485Z,34.85
2022-12-22T20:18:39.370Z,34.05
2022-12-22T20:21:13.711Z,28.80
2022-12-22T20:23:44.056Z,30.45
2022-12-22T20:26:20.971Z,30.52
2022-12-22T20:28:51.469Z,31.40
2022-12-22T20:31:26.609Z,33.60
2022-12-22T20:33:56.861Z,31.88
2022-12-22T20:36:31.864Z,35.95
2022-12-22T20:39:03.302Z,32.92
2022-12-22T20:41:33.165Z,34.55
2022-12-22T20:44:03.061Z,33.80
2022-12-22T20:46:35.645Z,36.03
2022-12-22T20:49:07.369Z,36.63
2022-12-22T20:51:37.274Z,37.28
2022-12-22T20:54:07.835Z,41.47
2022-12-22T20:56:41.099Z,39.80
2022-12-22T20:59:17.979Z,35.97
2022-12-22T21:01:51.775Z,34.88
2022-12-22T21:04:22.912Z,38.13
2022-12-22T21:06:55.266Z,40.45
2022-12-22T21:09:26.923Z,46.38
2022-12-22T21:11:56.766Z,32.72
2022-12-22T21:14:26.601Z,37.83
2022-12-22T21:16:59.204Z,40.38
2022-12-22T21:19:29.171Z,43.92
2022-12-22T21:21:59.174Z,38.30
2022-12-22T21:24:29.060Z,39.33
2022-12-22T21:26:59.230Z,38.30
2022-12-22T21:29:30.572Z,37.85
2022-12-22T21:32:03.079Z,39.60
2022-12-22T21:34:32.933Z,33.95
2022-12-22T21:37:05.714Z,39.97
2022-12-22T21:39:42.582Z,34.05
2022-12-22T21:42:17.358Z,36.38
2022-12-22T21:47:22.413Z,36.78
2022-12-22T21:49:52.329Z,37.25
2022-12-22T21:52:22.205Z,38.28
2022-12-22T21:54:52.061Z,40.28
2022-12-22T21:57:21.927Z,42.65
2022-12-22T21:59:51.810Z,38.25
2022-12-22T22:02:24.410Z,33.38
2022-12-22T22:04:55.396Z,33.28
2022-12-22T22:07:25.734Z,37.72
2022-12-22T22:09:55.954Z,33.13
2022-12-22T22:12:39.911Z,37.72
2022-12-22T22:15:12.373Z,35.53
2022-12-22T22:17:46.199Z,37.90
2022-12-22T22:20:19.872Z,36.75
2022-12-22T22:22:51.413Z,37.88
2022-12-22T22:25:22.550Z,38.60
2022-12-22T22:27:52.856Z,38.00
2022-12-22T22:30:25.371Z,36.78
2022-12-22T22:32:59.181Z,36.97
2022-12-22T22:35:30.165Z,38.28
2022-12-22T22:38:00.119Z,37.95
2022-12-22T22:40:29.978Z,40.58
2022-12-22T22:42:59.891Z,37.45
2022-12-22T22:45:29.754Z,37.78
2022-12-22T22:48:07.730Z,37.05
2022-12-22T22:50:43.355Z,38.40
2022-12-22T22:53:13.274Z,36.70
2022-12-22T22:55:43.291Z,39.67
2022-12-22T22:58:13.382Z,40.63
2022-12-22T23:00:43.294Z,42.67
2022-12-22T23:03:16.694Z,44.30
2022-12-22T23:05:46.846Z,37.25
2022-12-22T23:08:16.771Z,43.60
2022-12-22T23:10:51.484Z,35.00
2022-12-22T23:15:57.734Z,35.05
2022-12-22T23:18:31.312Z,41.67
2022-12-22T23:21:01.684Z,44.45
2022-12-22T23:23:32.320Z,34.40
2022-12-22T23:26:03.222Z,37.38
2022-12-22T23:28:33.430Z,37.55
2022-12-22T23:31:03.377Z,32.47
2022-12-22T23:33:36.444Z,51.85
2022-12-22T23:36:07.348Z,38.10
2022-12-22T23:38:37.600Z,31.77
2022-12-22T23:41:10.576Z,34.30
2022-12-22T23:43:40.891Z,33.60
2022-12-22T23:46:12.768Z,36.92
2022-12-22T23:48:45.826Z,31.85
2022-12-22T23:51:15.679Z,33.38
2022-12-22T23:53:45.530Z,31.73
2022-12-22T23:56:15.433Z,30.30
2022-12-22T23:58:51.043Z,31.83
